sensor_id;sensor_type;location;lat;lon;timestamp;P1;durP1;ratioP1;P2;durP2;ratioP2
7563;SDS011;3823;53.586;10.040;2023-11-19T00:02:09;19.08;;;10.90;;
7563;SDS011;3823;53.586;10.040;2023-11-19T00:04:38;15.40;;;9.18;;
7563;SDS011;3823;53.586;10.040;2023-11-19T00:07:04;15.23;;;8.70;;
7563;SDS011;3823;53.586;10.040;2023-11-19T00:09:32;17.77;;;10.02;;
7563;SDS011;3823;53.586;10.040;2023-11-19T00:11:58;13.88;;;9.27;;
7563;SDS011;3823;53.586;10.040;2023-11-19T00:14:25;14.32;;;8.55;;
7563;SDS011;3823;53.586;10.040;2023-11-19T00:16:51;14.43;;;9.07;;
7563;SDS011;3823;53.586;10.040;2023-11-19T00:19:16;17.38;;;8.93;;
7563;SDS011;3823;53.586;10.040;2023-11-19T00:21:42;13.40;;;8.70;;
7563;SDS011;3823;53.586;10.040;2023-11-19T00:24:08;10.95;;;7.35;;
7563;SDS011;3823;53.586;10.040;2023-11-19T00:26:34;12.10;;;8.85;;
7563;SDS011;3823;53.586;10.040;2023-11-19T00:29:00;13.65;;;7.43;;
7563;SDS011;3823;53.586;10.040;2023-11-19T00:31:25;14.65;;;8.02;;
7563;SDS011;3823;53.586;10.040;2023-11-19T00:33:52;11.35;;;6.72;;
7563;SDS011;3823;53.586;10.040;2023-11-19T00:36:18;8.93;;;6.90;;
7563;SDS011;3823;53.586;10.040;2023-11-19T00:38:44;11.45;;;6.90;;
7563;SDS011;3823;53.586;10.040;2023-11-19T00:41:09;13.95;;;8.05;;
7563;SDS011;3823;53.586;10.040;2023-11-19T00:43:35;10.88;;;7.03;;
7563;SDS011;3823;53.586;10.040;2023-11-19T00:46:01;13.43;;;7.57;;
7563;SDS011;3823;53.586;10.040;2023-11-19T00:48:29;9.70;;;7.70;;
7563;SDS011;3823;53.586;10.040;2023-11-19T00:50:54;10.90;;;6.50;;
7563;SDS011;3823;53.586;10.040;2023-11-19T00:53:20;8.32;;;6.50;;
7563;SDS011;3823;53.586;10.040;2023-11-19T00:55:45;8.27;;;6.18;;
7563;SDS011;3823;53.586;10.040;2023-11-19T00:58:11;12.90;;;5.65;;
7563;SDS011;3823;53.586;10.040;2023-11-19T01:00:36;10.23;;;6.00;;
7563;SDS011;3823;53.586;10.040;2023-11-19T01:03:02;9.13;;;6.95;;
7563;SDS011;3823;53.586;10.040;2023-11-19T01:05:27;10.48;;;6.80;;
7563;SDS011;3823;53.586;10.040;2023-11-19T01:07:53;7.85;;;6.47;;
7563;SDS011;3823;53.586;10.040;2023-11-19T01:10:19;7.82;;;5.80;;
7563;SDS011;3823;53.586;10.040;2023-11-19T01:12:45;7.68;;;5.68;;
7563;SDS011;3823;53.586;10.040;2023-11-19T01:15:11;6.85;;;5.55;;
7563;SDS011;3823;53.586;10.040;2023-11-19T01:17:37;6.78;;;5.32;;
7563;SDS011;3823;53.586;10.040;2023-11-19T01:20:03;7.97;;;5.55;;
7563;SDS011;3823;53.586;10.040;2023-11-19T01:22:31;8.48;;;5.72;;
7563;SDS011;3823;53.586;10.040;2023-11-19T01:24:57;8.98;;;5.70;;
7563;SDS011;3823;53.586;10.040;2023-11-19T01:27:23;5.63;;;5.00;;
7563;SDS011;3823;53.586;10.040;2023-11-19T01:29:49;7.78;;;4.18;;
7563;SDS011;3823;53.586;10.040;2023-11-19T01:32:14;6.40;;;5.43;;
7563;SDS011;3823;53.586;10.040;2023-11-19T01:34:40;4.60;;;4.18;;
7563;SDS011;3823;53.586;10.040;2023-11-19T01:37:06;5.07;;;4.45;;
7563;SDS011;3823;53.586;10.040;2023-11-19T01:39:34;5.85;;;4.93;;
7563;SDS011;3823;53.586;10.040;2023-11-19T01:41:59;6.03;;;4.60;;
7563;SDS011;3823;53.586;10.040;2023-11-19T01:44:25;4.55;;;4.15;;
7563;SDS011;3823;53.586;10.040;2023-11-19T01:46:51;4.80;;;4.32;;
7563;SDS011;3823;53.586;10.040;2023-11-19T01:49:17;5.32;;;4.82;;
7563;SDS011;3823;53.586;10.040;2023-11-19T01:51:44;5.53;;;4.55;;
7563;SDS011;3823;53.586;10.040;2023-11-19T01:54:10;5.93;;;5.05;;
7563;SDS011;3823;53.586;10.040;2023-11-19T01:56:38;5.32;;;4.45;;
7563;SDS011;3823;53.586;10.040;2023-11-19T01:59:05;5.90;;;4.22;;
7563;SDS011;3823;53.586;10.040;2023-11-19T02:01:32;4.32;;;3.92;;
7563;SDS011;3823;53.586;10.040;2023-11-19T02:04:01;4.72;;;3.42;;
7563;SDS011;3823;53.586;10.040;2023-11-19T02:06:27;5.13;;;3.45;;
7563;SDS011;3823;53.586;10.040;2023-11-19T02:08:53;3.38;;;3.08;;
7563;SDS011;3823;53.586;10.040;2023-11-19T02:11:19;3.10;;;2.90;;
7563;SDS011;3823;53.586;10.040;2023-11-19T02:13:44;3.33;;;2.80;;
7563;SDS011;3823;53.586;10.040;2023-11-19T02:16:10;3.00;;;2.70;;
7563;SDS011;3823;53.586;10.040;2023-11-19T02:18:36;3.60;;;3.13;;
7563;SDS011;3823;53.586;10.040;2023-11-19T02:21:01;3.97;;;2.63;;
7563;SDS011;3823;53.586;10.040;2023-11-19T02:23:27;3.05;;;2.70;;
7563;SDS011;3823;53.586;10.040;2023-11-19T02:28:53;2.92;;;2.63;;
7563;SDS011;3823;53.586;10.040;2023-11-19T02:31:19;4.13;;;2.90;;
7563;SDS011;3823;53.586;10.040;2023-11-19T02:33:45;2.97;;;2.78;;
7563;SDS011;3823;53.586;10.040;2023-11-19T02:36:10;4.10;;;2.95;;
7563;SDS011;3823;53.586;10.040;2023-11-19T02:38:36;2.92;;;2.72;;
7563;SDS011;3823;53.586;10.040;2023-11-19T02:41:06;2.78;;;2.58;;
7563;SDS011;3823;53.586;10.040;2023-11-19T02:43:32;2.75;;;2.45;;
7563;SDS011;3823;53.586;10.040;2023-11-19T02:46:01;2.33;;;2.13;;
7563;SDS011;3823;53.586;10.040;2023-11-19T02:48:30;3.03;;;2.60;;
7563;SDS011;3823;53.586;10.040;2023-11-19T02:50:55;3.55;;;3.25;;
7563;SDS011;3823;53.586;10.040;2023-11-19T02:53:23;3.08;;;2.78;;
7563;SDS011;3823;53.586;10.040;2023-11-19T02:55:50;2.75;;;2.42;;
7563;SDS011;3823;53.586;10.040;2023-11-19T02:58:16;3.63;;;3.25;;
7563;SDS011;3823;53.586;10.040;2023-11-19T03:00:45;2.55;;;2.35;;
7563;SDS011;3823;53.586;10.040;2023-11-19T03:03:21;2.80;;;2.60;;
7563;SDS011;3823;53.586;10.040;2023-11-19T03:05:51;3.30;;;3.00;;
7563;SDS011;3823;53.586;10.040;2023-11-19T03:08:16;3.13;;;2.70;;
7563;SDS011;3823;53.586;10.040;2023-11-19T03:10:42;3.10;;;2.72;;
7563;SDS011;3823;53.586;10.040;2023-11-19T03:13:12;4.00;;;3.22;;
7563;SDS011;3823;53.586;10.040;2023-11-19T03:15:42;3.15;;;2.85;;
7563;SDS011;3823;53.586;10.040;2023-11-19T03:18:08;3.33;;;3.03;;
7563;SDS011;3823;53.586;10.040;2023-11-19T03:20:33;3.72;;;3.45;;
7563;SDS011;3823;53.586;10.040;2023-11-19T03:22:59;3.85;;;3.47;;
7563;SDS011;3823;53.586;10.040;2023-11-19T03:25:26;5.15;;;4.28;;
7563;SDS011;3823;53.586;10.040;2023-11-19T03:27:58;3.42;;;3.13;;
7563;SDS011;3823;53.586;10.040;2023-11-19T03:30:23;3.03;;;2.75;;
7563;SDS011;3823;53.586;10.040;2023-11-19T03:32:49;4.32;;;3.22;;
7563;SDS011;3823;53.586;10.040;2023-11-19T03:35:15;3.80;;;3.17;;
7563;SDS011;3823;53.586;10.040;2023-11-19T03:37:41;3.65;;;3.33;;
7563;SDS011;3823;53.586;10.040;2023-11-19T03:40:06;3.58;;;3.28;;
7563;SDS011;3823;53.586;10.040;2023-11-19T03:42:32;2.97;;;2.78;;
7563;SDS011;3823;53.586;10.040;2023-11-19T03:44:58;4.15;;;3.63;;
7563;SDS011;3823;53.586;10.040;2023-11-19T03:47:24;3.78;;;3.38;;
7563;SDS011;3823;53.586;10.040;2023-11-19T03:49:50;4.35;;;3.92;;
7563;SDS011;3823;53.586;10.040;2023-11-19T03:52:16;5.60;;;3.95;;
7563;SDS011;3823;53.586;10.040;2023-11-19T03:54:43;4.78;;;4.00;;
7563;SDS011;3823;53.586;10.040;2023-11-19T03:57:09;4.75;;;4.10;;
7563;SDS011;3823;53.586;10.040;2023-11-19T03:59:38;4.35;;;3.90;;
7563;SDS011;3823;53.586;10.040;2023-11-19T04:02:04;5.70;;;4.55;;
7563;SDS011;3823;53.586;10.040;2023-11-19T04:04:29;5.22;;;4.53;;
7563;SDS011;3823;53.586;10.040;2023-11-19T04:06:55;5.70;;;4.57;;
7563;SDS011;3823;53.586;10.040;2023-11-19T04:09:21;5.80;;;4.57;;
7563;SDS011;3823;53.586;10.040;2023-11-19T04:11:47;6.10;;;4.78;;
7563;SDS011;3823;53.586;10.040;2023-11-19T04:14:13;7.65;;;4.88;;
7563;SDS011;3823;53.586;10.040;2023-11-19T04:16:39;7.38;;;5.60;;
7563;SDS011;3823;53.586;10.040;2023-11-19T04:19:05;7.95;;;5.80;;
7563;SDS011;3823;53.586;10.040;2023-11-19T04:21:31;6.10;;;4.53;;
7563;SDS011;3823;53.586;10.040;2023-11-19T04:23:57;7.40;;;6.10;;
7563;SDS011;3823;53.586;10.040;2023-11-19T04:26:23;5.63;;;5.03;;
7563;SDS011;3823;53.586;10.040;2023-11-19T04:28:49;8.77;;;6.43;;
7563;SDS011;3823;53.586;10.040;2023-11-19T04:31:15;7.35;;;5.88;;
7563;SDS011;3823;53.586;10.040;2023-11-19T04:33:43;7.82;;;5.45;;
7563;SDS011;3823;53.586;10.040;2023-11-19T04:36:09;8.40;;;6.18;;
7563;SDS011;3823;53.586;10.040;2023-11-19T04:38:35;9.18;;;6.15;;
7563;SDS011;3823;53.586;10.040;2023-11-19T04:41:03;11.07;;;6.82;;
7563;SDS011;3823;53.586;10.040;2023-11-19T04:43:30;11.30;;;6.93;;
7563;SDS011;3823;53.586;10.040;2023-11-19T04:45:56;11.10;;;7.03;;
7563;SDS011;3823;53.586;10.040;2023-11-19T04:48:22;9.43;;;7.25;;
7563;SDS011;3823;53.586;10.040;2023-11-19T04:50:48;14.63;;;10.18;;
7563;SDS011;3823;53.586;10.040;2023-11-19T04:53:15;12.93;;;7.20;;
7563;SDS011;3823;53.586;10.040;2023-11-19T04:55:40;10.75;;;6.35;;
7563;SDS011;3823;53.586;10.040;2023-11-19T04:58:06;11.25;;;8.35;;
7563;SDS011;3823;53.586;10.040;2023-11-19T05:00:32;14.13;;;8.13;;
7563;SDS011;3823;53.586;10.040;2023-11-19T05:02:57;10.85;;;6.97;;
7563;SDS011;3823;53.586;10.040;2023-11-19T05:05:23;11.07;;;6.47;;
7563;SDS011;3823;53.586;10.040;2023-11-19T05:07:49;10.05;;;6.82;;
7563;SDS011;3823;53.586;10.040;2023-11-19T05:10:14;9.65;;;6.80;;
7563;SDS011;3823;53.586;10.040;2023-11-19T05:12:40;12.20;;;7.20;;
7563;SDS011;3823;53.586;10.040;2023-11-19T05:15:06;12.05;;;7.57;;
7563;SDS011;3823;53.586;10.040;2023-11-19T05:17:32;14.48;;;8.60;;
7563;SDS011;3823;53.586;10.040;2023-11-19T05:19:58;11.15;;;7.60;;
7563;SDS011;3823;53.586;10.040;2023-11-19T05:22:24;13.70;;;9.48;;
7563;SDS011;3823;53.586;10.040;2023-11-19T05:24:51;16.20;;;8.90;;
7563;SDS011;3823;53.586;10.040;2023-11-19T05:27:16;14.45;;;9.45;;
7563;SDS011;3823;53.586;10.040;2023-11-19T05:29:42;17.02;;;9.32;;
7563;SDS011;3823;53.586;10.040;2023-11-19T05:32:08;14.27;;;8.27;;
7563;SDS011;3823;53.586;10.040;2023-11-19T05:34:34;20.73;;;9.80;;
7563;SDS011;3823;53.586;10.040;2023-11-19T05:36:59;15.18;;;8.32;;
7563;SDS011;3823;53.586;10.040;2023-11-19T05:39:25;16.17;;;8.80;;
7563;SDS011;3823;53.586;10.040;2023-11-19T05:41:50;20.77;;;9.95;;
7563;SDS011;3823;53.586;10.040;2023-11-19T05:44:16;15.90;;;9.35;;
7563;SDS011;3823;53.586;10.040;2023-11-19T05:46:42;21.67;;;10.57;;
7563;SDS011;3823;53.586;10.040;2023-11-19T05:49:11;16.38;;;8.75;;
7563;SDS011;3823;53.586;10.040;2023-11-19T05:51:38;19.00;;;9.85;;
7563;SDS011;3823;53.586;10.040;2023-11-19T05:54:06;14.63;;;9.35;;
7563;SDS011;3823;53.586;10.040;2023-11-19T05:56:35;18.48;;;10.52;;
7563;SDS011;3823;53.586;10.040;2023-11-19T05:59:00;16.45;;;9.13;;
7563;SDS011;3823;53.586;10.040;2023-11-19T06:01:28;22.17;;;10.35;;
7563;SDS011;3823;53.586;10.040;2023-11-19T06:03:54;24.02;;;11.13;;
7563;SDS011;3823;53.586;10.040;2023-11-19T06:06:20;25.10;;;11.07;;
7563;SDS011;3823;53.586;10.040;2023-11-19T06:08:45;24.30;;;13.25;;
7563;SDS011;3823;53.586;10.040;2023-11-19T06:11:12;39.05;;;14.65;;
7563;SDS011;3823;53.586;10.040;2023-11-19T06:13:43;34.50;;;15.95;;
7563;SDS011;3823;53.586;10.040;2023-11-19T06:16:09;41.03;;;16.10;;
7563;SDS011;3823;53.586;10.040;2023-11-19T06:18:35;47.13;;;18.63;;
7563;SDS011;3823;53.586;10.040;2023-11-19T06:21:01;49.58;;;17.92;;
7563;SDS011;3823;53.586;10.040;2023-11-19T06:23:27;42.05;;;18.25;;
7563;SDS011;3823;53.586;10.040;2023-11-19T06:25:52;44.67;;;18.52;;
7563;SDS011;3823;53.586;10.040;2023-11-19T06:28:18;41.47;;;18.00;;
7563;SDS011;3823;53.586;10.040;2023-11-19T06:30:44;41.80;;;19.40;;
7563;SDS011;3823;53.586;10.040;2023-11-19T06:33:12;42.88;;;18.40;;
7563;SDS011;3823;53.586;10.040;2023-11-19T06:35:38;40.95;;;17.75;;
7563;SDS011;3823;53.586;10.040;2023-11-19T06:38:03;47.67;;;17.00;;
7563;SDS011;3823;53.586;10.040;2023-11-19T06:40:35;43.78;;;17.70;;
7563;SDS011;3823;53.586;10.040;2023-11-19T06:43:00;50.55;;;17.50;;
7563;SDS011;3823;53.586;10.040;2023-11-19T06:45:28;49.00;;;16.60;;
7563;SDS011;3823;53.586;10.040;2023-11-19T06:47:54;36.88;;;14.57;;
7563;SDS011;3823;53.586;10.040;2023-11-19T06:50:20;41.17;;;16.88;;
7563;SDS011;3823;53.586;10.040;2023-11-19T06:52:45;40.65;;;14.45;;
7563;SDS011;3823;53.586;10.040;2023-11-19T06:55:11;48.63;;;14.95;;
7563;SDS011;3823;53.586;10.040;2023-11-19T06:57:37;35.28;;;15.68;;
7563;SDS011;3823;53.586;10.040;2023-11-19T07:00:02;38.03;;;15.00;;
7563;SDS011;3823;53.586;10.040;2023-11-19T07:02:30;68.25;;;18.42;;
7563;SDS011;3823;53.586;10.040;2023-11-19T07:04:56;33.78;;;14.00;;
7563;SDS011;3823;53.586;10.040;2023-11-19T07:07:22;45.67;;;14.10;;
7563;SDS011;3823;53.586;10.040;2023-11-19T07:09:47;29.50;;;12.85;;
7563;SDS011;3823;53.586;10.040;2023-11-19T07:12:13;34.33;;;13.27;;
7563;SDS011;3823;53.586;10.040;2023-11-19T07:14:39;36.58;;;12.77;;
7563;SDS011;3823;53.586;10.040;2023-11-19T07:17:05;33.97;;;11.85;;
7563;SDS011;3823;53.586;10.040;2023-11-19T07:19:31;33.72;;;10.55;;
7563;SDS011;3823;53.586;10.040;2023-11-19T07:21:56;24.52;;;11.13;;
7563;SDS011;3823;53.586;10.040;2023-11-19T07:24:22;30.02;;;11.07;;
7563;SDS011;3823;53.586;10.040;2023-11-19T07:26:47;39.03;;;11.10;;
7563;SDS011;3823;53.586;10.040;2023-11-19T07:29:13;33.47;;;10.93;;
7563;SDS011;3823;53.586;10.040;2023-11-19T07:31:41;23.50;;;10.70;;
7563;SDS011;3823;53.586;10.040;2023-11-19T07:34:09;18.73;;;8.90;;
7563;SDS011;3823;53.586;10.040;2023-11-19T07:36:35;30.13;;;9.75;;
7563;SDS011;3823;53.586;10.040;2023-11-19T07:39:01;28.13;;;8.00;;
7563;SDS011;3823;53.586;10.040;2023-11-19T07:41:29;20.45;;;6.93;;
7563;SDS011;3823;53.586;10.040;2023-11-19T07:43:55;28.88;;;10.52;;
7563;SDS011;3823;53.586;10.040;2023-11-19T07:46:21;21.48;;;7.40;;
7563;SDS011;3823;53.586;10.040;2023-11-19T07:48:46;29.40;;;8.00;;
7563;SDS011;3823;53.586;10.040;2023-11-19T07:51:13;31.13;;;7.68;;
7563;SDS011;3823;53.586;10.040;2023-11-19T07:53:39;15.90;;;6.63;;
7563;SDS011;3823;53.586;10.040;2023-11-19T07:56:06;21.50;;;7.22;;
7563;SDS011;3823;53.586;10.040;2023-11-19T07:58:32;22.52;;;7.03;;
7563;SDS011;3823;53.586;10.040;2023-11-19T08:00:58;33.58;;;8.10;;
7563;SDS011;3823;53.586;10.040;2023-11-19T08:03:23;29.85;;;7.38;;
7563;SDS011;3823;53.586;10.040;2023-11-19T08:05:49;23.85;;;7.75;;
7563;SDS011;3823;53.586;10.040;2023-11-19T08:08:14;24.33;;;8.02;;
7563;SDS011;3823;53.586;10.040;2023-11-19T08:10:40;22.65;;;6.40;;
7563;SDS011;3823;53.586;10.040;2023-11-19T08:13:06;21.10;;;8.50;;
7563;SDS011;3823;53.586;10.040;2023-11-19T08:15:32;27.10;;;7.03;;
7563;SDS011;3823;53.586;10.040;2023-11-19T08:17:58;28.30;;;6.43;;
7563;SDS011;3823;53.586;10.040;2023-11-19T08:20:23;20.60;;;6.70;;
7563;SDS011;3823;53.586;10.040;2023-11-19T08:22:49;25.30;;;8.45;;
7563;SDS011;3823;53.586;10.040;2023-11-19T08:25:15;29.98;;;7.75;;
7563;SDS011;3823;53.586;10.040;2023-11-19T08:27:40;27.85;;;7.10;;
7563;SDS011;3823;53.586;10.040;2023-11-19T08:30:06;31.25;;;7.32;;
7563;SDS011;3823;53.586;10.040;2023-11-19T08:32:32;28.48;;;6.93;;
7563;SDS011;3823;53.586;10.040;2023-11-19T08:34:59;30.73;;;6.07;;
7563;SDS011;3823;53.586;10.040;2023-11-19T08:37:24;27.60;;;5.72;;
7563;SDS011;3823;53.586;10.040;2023-11-19T08:39:50;46.05;;;8.10;;
7563;SDS011;3823;53.586;10.040;2023-11-19T08:42:16;27.75;;;6.95;;
7563;SDS011;3823;53.586;10.040;2023-11-19T08:44:42;19.80;;;6.47;;
7563;SDS011;3823;53.586;10.040;2023-11-19T08:47:09;24.98;;;7.60;;
7563;SDS011;3823;53.586;10.040;2023-11-19T08:49:36;41.42;;;9.15;;
7563;SDS011;3823;53.586;10.040;2023-11-19T08:52:01;35.53;;;6.70;;
7563;SDS011;3823;53.586;10.040;2023-11-19T08:54:27;26.45;;;7.05;;
7563;SDS011;3823;53.586;10.040;2023-11-19T08:56:52;21.20;;;6.30;;
7563;SDS011;3823;53.586;10.040;2023-11-19T08:59:18;35.28;;;8.75;;
7563;SDS011;3823;53.586;10.040;2023-11-19T09:01:44;34.05;;;6.90;;
7563;SDS011;3823;53.586;10.040;2023-11-19T09:04:09;30.38;;;6.53;;
7563;SDS011;3823;53.586;10.040;2023-11-19T09:06:35;37.85;;;8.32;;
7563;SDS011;3823;53.586;10.040;2023-11-19T09:09:01;25.85;;;5.82;;
7563;SDS011;3823;53.586;10.040;2023-11-19T09:11:28;26.10;;;6.93;;
7563;SDS011;3823;53.586;10.040;2023-11-19T09:13:54;28.60;;;6.47;;
7563;SDS011;3823;53.586;10.040;2023-11-19T09:16:19;26.15;;;6.05;;
7563;SDS011;3823;53.586;10.040;2023-11-19T09:18:45;22.55;;;5.38;;
7563;SDS011;3823;53.586;10.040;2023-11-19T09:21:11;28.23;;;6.65;;
7563;SDS011;3823;53.586;10.040;2023-11-19T09:23:37;27.35;;;6.97;;
7563;SDS011;3823;53.586;10.040;2023-11-19T09:26:10;27.17;;;6.35;;
7563;SDS011;3823;53.586;10.040;2023-11-19T09:28:36;35.63;;;6.53;;
7563;SDS011;3823;53.586;10.040;2023-11-19T09:31:01;33.80;;;6.55;;
7563;SDS011;3823;53.586;10.040;2023-11-19T09:33:30;30.98;;;5.55;;
7563;SDS011;3823;53.586;10.040;2023-11-19T09:35:55;43.75;;;6.53;;
7563;SDS011;3823;53.586;10.040;2023-11-19T09:38:21;23.50;;;6.28;;
7563;SDS011;3823;53.586;10.040;2023-11-19T09:40:47;24.25;;;5.28;;
7563;SDS011;3823;53.586;10.040;2023-11-19T09:43:13;26.88;;;5.60;;
7563;SDS011;3823;53.586;10.040;2023-11-19T09:45:58;28.15;;;5.97;;
7563;SDS011;3823;53.586;10.040;2023-11-19T09:48:32;26.98;;;5.88;;
7563;SDS011;3823;53.586;10.040;2023-11-19T09:50:58;48.72;;;7.05;;
7563;SDS011;3823;53.586;10.040;2023-11-19T09:53:24;31.45;;;7.00;;
7563;SDS011;3823;53.586;10.040;2023-11-19T09:55:51;23.48;;;4.45;;
7563;SDS011;3823;53.586;10.040;2023-11-19T09:58:17;22.73;;;5.30;;
7563;SDS011;3823;53.586;10.040;2023-11-19T10:00:43;24.67;;;7.13;;
7563;SDS011;3823;53.586;10.040;2023-11-19T10:03:09;21.42;;;5.07;;
7563;SDS011;3823;53.586;10.040;2023-11-19T10:05:37;32.10;;;5.85;;
7563;SDS011;3823;53.586;10.040;2023-11-19T10:08:04;26.08;;;5.63;;
7563;SDS011;3823;53.586;10.040;2023-11-19T10:10:30;22.73;;;4.85;;
7563;SDS011;3823;53.586;10.040;2023-11-19T10:12:55;20.20;;;5.35;;
7563;SDS011;3823;53.586;10.040;2023-11-19T10:15:21;25.73;;;6.40;;
7563;SDS011;3823;53.586;10.040;2023-11-19T10:17:49;26.70;;;5.30;;
7563;SDS011;3823;53.586;10.040;2023-11-19T10:20:15;27.90;;;6.03;;
7563;SDS011;3823;53.586;10.040;2023-11-19T10:22:41;34.05;;;9.73;;
7563;SDS011;3823;53.586;10.040;2023-11-19T10:25:23;34.05;;;7.82;;
7563;SDS011;3823;53.586;10.040;2023-11-19T10:27:52;32.17;;;6.00;;
7563;SDS011;3823;53.586;10.040;2023-11-19T10:30:22;27.35;;;5.60;;
7563;SDS011;3823;53.586;10.040;2023-11-19T10:35:35;25.08;;;5.63;;
7563;SDS011;3823;53.586;10.040;2023-11-19T10:38:14;24.27;;;6.97;;
7563;SDS011;3823;53.586;10.040;2023-11-19T10:40:40;22.38;;;5.72;;
7563;SDS011;3823;53.586;10.040;2023-11-19T10:43:06;22.40;;;5.40;;
7563;SDS011;3823;53.586;10.040;2023-11-19T10:45:32;25.65;;;6.00;;
7563;SDS011;3823;53.586;10.040;2023-11-19T10:47:59;20.15;;;5.80;;
7563;SDS011;3823;53.586;10.040;2023-11-19T10:50:25;29.70;;;6.95;;
7563;SDS011;3823;53.586;10.040;2023-11-19T10:52:54;31.02;;;5.78;;
7563;SDS011;3823;53.586;10.040;2023-11-19T10:55:25;29.20;;;5.10;;
7563;SDS011;3823;53.586;10.040;2023-11-19T10:57:53;28.75;;;5.22;;
7563;SDS011;3823;53.586;10.040;2023-11-19T11:00:26;33.55;;;5.60;;
7563;SDS011;3823;53.586;10.040;2023-11-19T11:02:56;26.95;;;6.43;;
7563;SDS011;3823;53.586;10.040;2023-11-19T11:05:26;33.22;;;5.68;;
7563;SDS011;3823;53.586;10.040;2023-11-19T11:07:52;22.00;;;5.00;;
7563;SDS011;3823;53.586;10.040;2023-11-19T11:10:21;28.88;;;5.88;;
7563;SDS011;3823;53.586;10.040;2023-11-19T11:12:51;29.60;;;5.93;;
7563;SDS011;3823;53.586;10.040;2023-11-19T11:15:23;20.70;;;4.90;;
7563;SDS011;3823;53.586;10.040;2023-11-19T11:17:52;30.75;;;5.40;;
7563;SDS011;3823;53.586;10.040;2023-11-19T11:20:25;28.52;;;6.25;;
7563;SDS011;3823;53.586;10.040;2023-11-19T11:23:01;27.25;;;7.18;;
7563;SDS011;3823;53.586;10.040;2023-11-19T11:31:08;37.13;;;7.35;;
7563;SDS011;3823;53.586;10.040;2023-11-19T11:36:58;22.85;;;4.05;;
7563;SDS011;3823;53.586;10.040;2023-11-19T11:39:36;19.52;;;4.22;;
7563;SDS011;3823;53.586;10.040;2023-11-19T11:47:25;30.00;;;9.35;;
7563;SDS011;3823;53.586;10.040;2023-11-19T11:49:51;26.15;;;6.55;;
7563;SDS011;3823;53.586;10.040;2023-11-19T11:52:17;34.00;;;9.73;;
7563;SDS011;3823;53.586;10.040;2023-11-19T11:54:43;23.77;;;6.72;;
7563;SDS011;3823;53.586;10.040;2023-11-19T11:57:10;29.10;;;7.05;;
7563;SDS011;3823;53.586;10.040;2023-11-19T12:02:10;17.15;;;5.07;;
7563;SDS011;3823;53.586;10.040;2023-11-19T12:04:39;16.38;;;5.03;;
7563;SDS011;3823;53.586;10.040;2023-11-19T12:07:06;32.97;;;7.63;;
7563;SDS011;3823;53.586;10.040;2023-11-19T12:09:36;22.63;;;6.93;;
7563;SDS011;3823;53.586;10.040;2023-11-19T12:19:59;27.05;;;5.63;;
7563;SDS011;3823;53.586;10.040;2023-11-19T12:22:30;26.85;;;5.63;;
7563;SDS011;3823;53.586;10.040;2023-11-19T12:24:56;29.15;;;5.70;;
7563;SDS011;3823;53.586;10.040;2023-11-19T12:27:21;25.27;;;5.28;;
7563;SDS011;3823;53.586;10.040;2023-11-19T12:29:48;24.75;;;4.32;;
7563;SDS011;3823;53.586;10.040;2023-11-19T12:32:14;22.65;;;5.15;;
7563;SDS011;3823;53.586;10.040;2023-11-19T12:34:39;10.55;;;3.55;;
7563;SDS011;3823;53.586;10.040;2023-11-19T12:37:05;22.98;;;4.25;;
7563;SDS011;3823;53.586;10.040;2023-11-19T12:39:31;28.38;;;5.93;;
7563;SDS011;3823;53.586;10.040;2023-11-19T12:41:57;24.60;;;4.88;;
7563;SDS011;3823;53.586;10.040;2023-11-19T12:44:26;28.52;;;5.43;;
7563;SDS011;3823;53.586;10.040;2023-11-19T12:49:30;24.83;;;5.03;;
7563;SDS011;3823;53.586;10.040;2023-11-19T12:51:56;20.27;;;4.47;;
7563;SDS011;3823;53.586;10.040;2023-11-19T12:57:17;23.23;;;5.22;;
7563;SDS011;3823;53.586;10.040;2023-11-19T12:59:55;16.80;;;4.47;;
7563;SDS011;3823;53.586;10.040;2023-11-19T13:02:21;15.27;;;4.47;;
7563;SDS011;3823;53.586;10.040;2023-11-19T13:04:48;16.65;;;4.53;;
7563;SDS011;3823;53.586;10.040;2023-11-19T13:07:15;31.48;;;4.93;;
7563;SDS011;3823;53.586;10.040;2023-11-19T13:09:46;25.17;;;8.15;;
7563;SDS011;3823;53.586;10.040;2023-11-19T13:12:12;24.63;;;6.78;;
7563;SDS011;3823;53.586;10.040;2023-11-19T13:14:39;26.63;;;5.45;;
7563;SDS011;3823;53.586;10.040;2023-11-19T13:17:07;32.53;;;6.15;;
7563;SDS011;3823;53.586;10.040;2023-11-19T13:19:33;23.00;;;6.10;;
7563;SDS011;3823;53.586;10.040;2023-11-19T13:21:59;21.67;;;5.68;;
7563;SDS011;3823;53.586;10.040;2023-11-19T13:24:24;19.60;;;5.25;;
7563;SDS011;3823;53.586;10.040;2023-11-19T13:26:50;20.27;;;4.85;;
7563;SDS011;3823;53.586;10.040;2023-11-19T13:29:15;23.38;;;4.82;;
7563;SDS011;3823;53.586;10.040;2023-11-19T13:31:41;21.45;;;4.65;;
7563;SDS011;3823;53.586;10.040;2023-11-19T13:34:06;20.35;;;4.82;;
7563;SDS011;3823;53.586;10.040;2023-11-19T13:36:33;34.53;;;6.57;;
7563;SDS011;3823;53.586;10.040;2023-11-19T13:38:59;22.08;;;5.10;;
7563;SDS011;3823;53.586;10.040;2023-11-19T13:41:25;27.10;;;7.15;;
7563;SDS011;3823;53.586;10.040;2023-11-19T13:43:51;22.83;;;4.90;;
7563;SDS011;3823;53.586;10.040;2023-11-19T13:46:17;21.38;;;5.40;;
7563;SDS011;3823;53.586;10.040;2023-11-19T13:48:42;16.48;;;5.03;;
7563;SDS011;3823;53.586;10.040;2023-11-19T13:51:08;22.05;;;5.65;;
7563;SDS011;3823;53.586;10.040;2023-11-19T13:53:35;25.33;;;4.88;;
7563;SDS011;3823;53.586;10.040;2023-11-19T13:56:00;17.15;;;4.60;;
7563;SDS011;3823;53.586;10.040;2023-11-19T13:58:26;31.52;;;7.13;;
7563;SDS011;3823;53.586;10.040;2023-11-19T14:00:51;25.63;;;4.07;;
7563;SDS011;3823;53.586;10.040;2023-11-19T14:03:17;19.67;;;6.35;;
7563;SDS011;3823;53.586;10.040;2023-11-19T14:05:43;37.85;;;6.57;;
7563;SDS011;3823;53.586;10.040;2023-11-19T14:08:08;20.70;;;6.53;;
7563;SDS011;3823;53.586;10.040;2023-11-19T14:10:37;31.02;;;4.97;;
7563;SDS011;3823;53.586;10.040;2023-11-19T14:13:06;22.77;;;5.13;;
7563;SDS011;3823;53.586;10.040;2023-11-19T14:15:32;15.95;;;5.38;;
7563;SDS011;3823;53.586;10.040;2023-11-19T14:17:57;20.15;;;5.00;;
7563;SDS011;3823;53.586;10.040;2023-11-19T14:20:23;21.67;;;6.13;;
7563;SDS011;3823;53.586;10.040;2023-11-19T14:22:49;21.25;;;4.82;;
7563;SDS011;3823;53.586;10.040;2023-11-19T14:25:16;28.17;;;4.88;;
7563;SDS011;3823;53.586;10.040;2023-11-19T14:27:42;26.25;;;6.07;;
7563;SDS011;3823;53.586;10.040;2023-11-19T14:30:10;17.45;;;4.57;;
7563;SDS011;3823;53.586;10.040;2023-11-19T14:32:37;25.83;;;6.75;;
7563;SDS011;3823;53.586;10.040;2023-11-19T14:35:03;25.40;;;5.63;;
7563;SDS011;3823;53.586;10.040;2023-11-19T14:37:30;23.92;;;5.63;;
7563;SDS011;3823;53.586;10.040;2023-11-19T14:39:56;22.63;;;6.15;;
7563;SDS011;3823;53.586;10.040;2023-11-19T14:42:22;24.77;;;5.72;;
7563;SDS011;3823;53.586;10.040;2023-11-19T14:44:48;34.95;;;5.88;;
7563;SDS011;3823;53.586;10.040;2023-11-19T14:47:13;20.40;;;6.75;;
7563;SDS011;3823;53.586;10.040;2023-11-19T14:49:39;19.25;;;5.43;;
7563;SDS011;3823;53.586;10.040;2023-11-19T14:52:05;26.40;;;5.22;;
7563;SDS011;3823;53.586;10.040;2023-11-19T14:54:30;17.40;;;5.07;;
7563;SDS011;3823;53.586;10.040;2023-11-19T14:56:56;13.68;;;4.10;;
7563;SDS011;3823;53.586;10.040;2023-11-19T14:59:22;22.33;;;5.05;;
7563;SDS011;3823;53.586;10.040;2023-11-19T15:01:47;17.55;;;5.18;;
7563;SDS011;3823;53.586;10.040;2023-11-19T15:04:13;18.10;;;4.03;;
7563;SDS011;3823;53.586;10.040;2023-11-19T15:06:38;13.35;;;5.13;;
7563;SDS011;3823;53.586;10.040;2023-11-19T15:09:04;16.88;;;3.88;;
7563;SDS011;3823;53.586;10.040;2023-11-19T15:11:30;9.77;;;1.80;;
7563;SDS011;3823;53.586;10.040;2023-11-19T15:13:56;11.73;;;1.85;;
7563;SDS011;3823;53.586;10.040;2023-11-19T15:16:21;9.93;;;2.78;;
7563;SDS011;3823;53.586;10.040;2023-11-19T15:18:50;5.97;;;1.50;;
7563;SDS011;3823;53.586;10.040;2023-11-19T15:21:17;2.13;;;1.27;;
7563;SDS011;3823;53.586;10.040;2023-11-19T15:23:42;5.05;;;1.23;;